Time;durP1;ratioP1;P1;durP2;ratioP2;P2;SDS_P1;SDS_P2;PMS_P1;PMS_P2;Temp;Humidity;BMP_temperature;BMP_pressure;BME280_temperature;BME280_humidity;BME280_pressure;Samples;Min_cycle;Max_cycle;Signal;HPM_P1;HPM_P2
2023/01/13 00:02:10;;;;;;;0.30;0.30;;;;;;;;;;4958621;29;20054;-82
2023/01/13 00:04:36;;;;;;;0.43;0.38;;;;;;;;;;4968869;28;20042;-82
2023/01/13 00:07:02;;;;;;;0.15;0.15;;;;;;;;;;4960160;29;20527;-79
2023/01/13 00:09:28;;;;;;;0.20;0.15;;;;;;;;;;4951873;29;20231;-80
2023/01/13 00:11:55;;;;;;;2.67;0.43;;;;;;;;;;4951703;29;20090;-78
2023/01/13 00:14:21;;;;;;;1.35;0.93;;;;;;;;;;4952255;28;20063;-79
2023/01/13 00:16:47;;;;;;;0.43;0.22;;;;;;;;;;4966587;28;20462;-79
2023/01/13 00:19:13;;;;;;;0.43;0.17;;;;;;;;;;4952037;29;20051;-78
2023/01/13 00:21:39;;;;;;;0.22;0.22;;;;;;;;;;4952039;29;20035;-78
2023/01/13 00:24:05;;;;;;;0.20;0.20;;;;;;;;;;4966394;28;20043;-78
2023/01/13 00:26:34;;;;;;;4.57;0.73;;;;;;;;;;4951736;29;20027;-78
2023/01/13 00:29:01;;;;;;;0.28;0.28;;;;;;;;;;4966435;28;20027;-80
2023/01/13 00:31:27;;;;;;;0.73;0.25;;;;;;;;;;4977097;28;20039;-83
2023/01/13 00:33:56;;;;;;;0.40;0.30;;;11.00;99.90;;;;;;4959808;29;20196;-82
2023/01/13 00:36:22;;;;;;;0.77;0.40;;;;;;;;;;4960688;29;20038;-78
2023/01/13 00:38:48;;;;;;;0.28;0.17;;;;;;;;;;4953388;29;20772;-78
2023/01/13 00:41:15;;;;;;;1.80;0.60;;;;;;;;;;4956748;29;20055;-81
2023/01/13 00:43:42;;;;;;;0.35;0.35;;;;;;;;;;4957085;29;20036;-82
2023/01/13 00:46:10;;;;;;;4.82;0.70;;;11.00;99.90;;;;;;4959525;29;20091;-83
2023/01/13 00:48:37;;;;;;;0.28;0.25;;;;;;;;;;4962441;28;20030;-79
2023/01/13 00:51:07;;;;;;;0.20;0.20;;;;;;;;;;4950828;29;20019;-78
2023/01/13 00:53:34;;;;;;;0.20;0.20;;;;;;;;;;4949741;29;20023;-78
2023/01/13 00:56:05;;;;;;;2.70;0.30;;;;;;;;;;4956119;29;20031;-79
2023/01/13 00:58:32;;;;;;;0.32;0.30;;;10.80;99.90;;;;;;4954393;29;20039;-82
2023/01/13 01:01:25;;;;;;;1.45;0.32;;;;;;;;;;4963539;28;20577;-79
2023/01/13 01:03:52;;;;;;;0.28;0.28;;;;;;;;;;4947557;28;20047;-77
2023/01/13 01:06:23;;;;;;;0.40;0.25;;;10.70;99.90;;;;;;4953204;29;20058;-82
2023/01/13 01:08:49;;;;;;;2.60;0.93;;;;;;;;;;4963777;28;20024;-83
2023/01/13 01:11:25;;;;;;;0.20;0.20;;;10.80;99.90;;;;;;4966043;28;20030;-81
2023/01/13 01:13:51;;;;;;;2.67;0.50;;;;;;;;;;4957184;29;20133;-78
2023/01/13 01:16:19;;;;;;;0.47;0.40;;;;;;;;;;4949541;29;20126;-78
2023/01/13 01:18:45;;;;;;;0.20;0.20;;;;;;;;;;4950211;29;20118;-78
2023/01/13 01:21:12;;;;;;;0.20;0.20;;;;;;;;;;4949807;29;20507;-78
2023/01/13 01:23:38;;;;;;;0.20;0.20;;;;;;;;;;4949564;29;20036;-77
2023/01/13 01:26:05;;;;;;;0.70;0.68;;;;;;;;;;4948972;29;20074;-78
2023/01/13 01:28:31;;;;;;;0.20;0.20;;;;;;;;;;4950147;29;20034;-80
2023/01/13 01:30:58;;;;;;;0.20;0.20;;;;;;;;;;4951016;29;20034;-79
2023/01/13 01:33:24;;;;;;;0.20;0.20;;;;;;;;;;4950698;28;20392;-76
2023/01/13 01:35:50;;;;;;;1.35;0.45;;;;;;;;;;4950593;29;20055;-78
2023/01/13 01:38:16;;;;;;;0.40;0.20;;;;;;;;;;4965031;28;20483;-78
2023/01/13 01:40:42;;;;;;;2.00;0.47;;;;;;;;;;4950289;29;20027;-80
2023/01/13 01:46:04;;;;;;;0.50;0.20;;;;;;;;;;4951017;29;20049;-80
2023/01/13 01:48:34;;;;;;;1.45;0.38;;;;;;;;;;4951190;29;20019;-80
2023/01/13 01:51:00;;;;;;;;;;;;;;;;;;4952046;29;20198;-80
2023/01/13 01:53:27;;;;;;;1.40;0.38;;;;;;;;;;4950895;29;20102;-75
2023/01/13 01:55:54;;;;;;;0.30;0.30;;;;;;;;;;4966691;28;20027;-77
2023/01/13 01:58:37;;;;;;;0.10;0.10;;;;;;;;;;4949417;29;20036;-77
2023/01/13 02:01:03;;;;;;;0.47;0.13;;;;;;;;;;4949817;29;20038;-75
2023/01/13 02:03:29;;;;;;;0.45;0.43;;;;;;;;;;4963764;28;20547;-79
2023/01/13 02:05:55;;;;;;;0.45;0.45;;;;;;;;;;4950095;29;20035;-79
2023/01/13 02:08:21;;;;;;;0.22;0.10;;;;;;;;;;4949336;29;20024;-78
2023/01/13 02:10:50;;;;;;;10.07;0.30;;;;;;;;;;4964124;28;20118;-79
2023/01/13 02:13:16;;;;;;;2.92;0.52;;;;;;;;;;4948810;29;20035;-78
2023/01/13 02:16:02;;;;;;;4.28;1.35;;;;;;;;;;4949638;29;20039;-79
2023/01/13 02:18:35;;;;;;;0.43;0.20;;;;;;;;;;4947652;29;20034;-77
2023/01/13 02:21:01;;;;;;;1.73;0.30;;;;;;;;;;4949004;28;20036;-77
2023/01/13 02:26:53;;;;;;;0.40;0.40;;;;;;;;;;4949910;29;20045;-75
2023/01/13 02:32:29;;;;;;;0.90;0.30;;;;;;;;;;4948918;29;21047;-77
2023/01/13 02:35:08;;;;;;;0.17;0.17;;;;;;;;;;4948239;29;20496;-74
2023/01/13 02:37:36;;;;;;;1.30;0.20;;;;;;;;;;4948756;29;20055;-75
2023/01/13 02:40:05;;;;;;;1.10;0.47;;;;;;;;;;4948729;29;20035;-75
2023/01/13 02:45:25;;;;;;;2.17;0.20;;;;;;;;;;4949782;29;20050;-75
2023/01/13 02:47:54;;;;;;;0.10;0.10;;;;;;;;;;4949784;29;20074;-75
2023/01/13 02:50:20;;;;;;;;;;;;;;;;;;4950851;28;20031;-75
2023/01/13 02:52:55;;;;;;;0.10;0.10;;;;;;;;;;4951813;29;19977;-76
2023/01/13 02:55:24;;;;;;;2.47;0.40;;;;;;;;;;4950230;29;20285;-75
2023/01/13 02:57:52;;;;;;;0.32;0.10;;;;;;;;;;4951492;29;20034;-76
2023/01/13 03:00:19;;;;;;;0.20;0.20;;;;;;;;;;4950470;29;20393;-75
2023/01/13 03:02:45;;;;;;;0.30;0.30;;;;;;;;;;4951030;29;20319;-75
2023/01/13 03:05:14;;;;;;;0.10;0.10;;;;;;;;;;4951266;29;20318;-75
2023/01/13 03:07:52;;;;;;;1.10;0.70;;;;;;;;;;4951597;29;20055;-75
2023/01/13 03:10:21;;;;;;;0.10;0.10;;;;;;;;;;4950242;29;20024;-75
2023/01/13 03:12:53;;;;;;;1.98;0.15;;;;;;;;;;4951292;28;20051;-75
2023/01/13 03:15:19;;;;;;;0.57;0.57;;;;;;;;;;4950064;29;20035;-75
2023/01/13 03:17:50;;;;;;;0.10;0.10;;;;;;;;;;4949877;29;20031;-75
2023/01/13 03:20:27;;;;;;;0.75;0.17;;;;;;;;;;4950144;29;20027;-77
2023/01/13 03:22:53;;;;;;;0.10;0.10;;;;;;;;;;4951141;29;20027;-75
2023/01/13 03:25:28;;;;;;;0.40;0.20;;;;;;;;;;4951156;29;20086;-75
2023/01/13 03:28:02;;;;;;;0.20;0.20;;;;;;;;;;4951466;29;20027;-75
2023/01/13 03:30:31;;;;;;;0.00;0.00;;;;;;;;;;4951108;29;20051;-75
2023/01/13 03:33:11;;;;;;;0.20;0.10;;;;;;;;;;4951508;28;20015;-75
2023/01/13 03:35:39;;;;;;;0.10;0.10;;;;;;;;;;4954459;29;20074;-74
2023/01/13 03:38:09;;;;;;;1.35;0.10;;;;;;;;;;4954805;29;20548;-75
2023/01/13 03:40:38;;;;;;;0.00;0.00;;;;;;;;;;4953269;29;20034;-74
2023/01/13 03:45:55;;;;;;;0.10;0.10;;;;;;;;;;4954476;29;20136;-75
2023/01/13 03:48:22;;;;;;;0.10;0.10;;;;;;;;;;4954444;29;20027;-75
2023/01/13 03:50:53;;;;;;;0.10;0.10;;;;;;;;;;4954625;29;20512;-75
2023/01/13 03:53:31;;;;;;;0.40;0.40;;;;;;;;;;4954351;29;20093;-75
2023/01/13 03:55:59;;;;;;;0.00;0.00;;;;;;;;;;4954252;29;20031;-75
2023/01/13 03:58:28;;;;;;;0.13;0.13;;;;;;;;;;4953343;29;20030;-75
2023/01/13 04:00:59;;;;;;;0.10;0.10;;;;;;;;;;4954076;29;20027;-75
2023/01/13 04:03:37;;;;;;;0.10;0.10;;;9.30;99.90;;;;;;4953031;29;20027;-75
2023/01/13 04:06:15;;;;;;;0.13;0.13;;;;;;;;;;4954398;28;20023;-75
2023/01/13 04:08:48;;;;;;;0.70;0.30;;;;;;;;;;4953727;28;20027;-75
2023/01/13 04:11:17;;;;;;;0.10;0.10;;;;;;;;;;4954033;29;20506;-75
2023/01/13 04:13:45;;;;;;;0.10;0.10;;;;;;;;;;4953810;29;20031;-75
2023/01/13 04:16:11;;;;;;;0.00;0.00;;;;;;;;;;4954083;29;20023;-75
2023/01/13 04:18:38;;;;;;;0.10;0.10;;;;;;;;;;4954097;29;20027;-75
2023/01/13 04:21:04;;;;;;;0.00;0.00;;;;;;;;;;4953732;29;20027;-75
2023/01/13 04:23:31;;;;;;;0.20;0.15;;;;;;;;;;4954060;29;20033;-75
2023/01/13 04:25:57;;;;;;;0.30;0.30;;;;;;;;;;4953803;28;20058;-75
2023/01/13 04:28:24;;;;;;;0.00;0.00;;;;;;;;;;4953923;29;20547;-75
2023/01/13 04:30:50;;;;;;;0.22;0.10;;;;;;;;;;4952344;29;20031;-75
2023/01/13 04:33:17;;;;;;;0.20;0.20;;;;;;;;;;4953665;29;20051;-75
2023/01/13 04:35:43;;;;;;;0.20;0.20;;;;;;;;;;4953487;29;20043;-75
2023/01/13 04:38:11;;;;;;;0.95;0.65;;;;;;;;;;4953490;29;20098;-75
2023/01/13 04:40:37;;;;;;;0.85;0.20;;;;;;;;;;4952016;29;20034;-75
2023/01/13 04:43:03;;;;;;;0.20;0.20;;;;;;;;;;4953254;29;20027;-76
2023/01/13 04:45:29;;;;;;;0.10;0.10;;;;;;;;;;4953433;28;20119;-75
2023/01/13 04:47:55;;;;;;;0.10;0.10;;;;;;;;;;4953131;29;20035;-75
2023/01/13 04:50:21;;;;;;;0.30;0.30;;;;;;;;;;4954116;29;20645;-75
2023/01/13 04:52:48;;;;;;;0.10;0.10;;;;;;;;;;4954693;29;20436;-76
2023/01/13 04:55:14;;;;;;;0.05;0.05;;;;;;;;;;4953717;29;20043;-75
2023/01/13 04:57:40;;;;;;;0.00;0.00;;;;;;;;;;4953260;29;20051;-75
2023/01/13 05:00:07;;;;;;;0.38;0.13;;;;;;;;;;4952994;29;20468;-75
2023/01/13 05:02:33;;;;;;;0.10;0.10;;;;;;;;;;4952906;29;20028;-76
2023/01/13 05:04:59;;;;;;;0.10;0.10;;;;;;;;;;4951796;29;20058;-76
2023/01/13 05:07:25;;;;;;;0.00;0.00;;;;;;;;;;4953197;29;20031;-76
2023/01/13 05:09:51;;;;;;;0.10;0.10;;;;;;;;;;4953017;29;20112;-76
2023/01/13 05:17:47;;;;;;;0.10;0.10;;;;;;;;;;4952697;29;20495;-76
2023/01/13 05:20:13;;;;;;;0.10;0.10;;;;;;;;;;4952632;29;20031;-76
2023/01/13 05:25:25;;;;;;;0.00;0.00;;;;;;;;;;4952390;29;20046;-76
2023/01/13 05:27:53;;;;;;;0.10;0.10;;;;;;;;;;4952591;28;20428;-75
2023/01/13 05:30:20;;;;;;;0.00;0.00;;;;;;;;;;4952686;29;20023;-76
2023/01/13 05:32:46;;;;;;;0.98;0.10;;;;;;;;;;4952408;29;20528;-76
2023/01/13 05:35:14;;;;;;;0.10;0.10;;;;;;;;;;4952341;29;20055;-75
2023/01/13 05:37:40;;;;;;;0.05;0.05;;;;;;;;;;4952538;28;20046;-76
2023/01/13 05:43:20;;;;;;;0.20;0.10;;;;;;;;;;4952390;29;20131;-76
2023/01/13 05:45:47;;;;;;;0.00;0.00;;;;;;;;;;4952062;28;20427;-75
2023/01/13 05:48:14;;;;;;;0.10;0.10;;;;;;;;;;4952351;29;20030;-76
2023/01/13 05:50:40;;;;;;;0.00;0.00;;;;;;;;;;4952276;29;20027;-75
2023/01/13 05:53:06;;;;;;;1.45;0.10;;;;;;;;;;4952427;29;20112;-76
2023/01/13 05:55:32;;;;;;;1.13;0.10;;;;;;;;;;4951932;28;20050;-75
2023/01/13 05:57:58;;;;;;;0.00;0.00;;;;;;;;;;4950415;29;20377;-76
2023/01/13 06:00:24;;;;;;;0.00;0.00;;;;;;;;;;4951838;29;20153;-77
2023/01/13 06:02:50;;;;;;;0.10;0.10;;;;;;;;;;4952498;29;20031;-75
2023/01/13 06:05:16;;;;;;;0.10;0.10;;;;;;;;;;4951899;29;20042;-76
2023/01/13 06:07:42;;;;;;;0.47;0.10;;;;;;;;;;4952083;29;20062;-76
2023/01/13 06:10:08;;;;;;;0.00;0.00;;;;;;;;;;4950671;29;20059;-76
2023/01/13 06:12:35;;;;;;;0.63;0.10;;;;;;;;;;4952309;29;20019;-76
2023/01/13 06:15:01;;;;;;;1.85;0.10;;;;;;;;;;4951757;28;20027;-75
2023/01/13 06:17:28;;;;;;;0.00;0.00;;;;;;;;;;4951952;29;20020;-76
2023/01/13 06:19:54;;;;;;;0.10;0.10;;;;;;;;;;4951873;29;20042;-76
2023/01/13 06:22:24;;;;;;;0.00;0.00;;;;;;;;;;4951902;29;20030;-77
2023/01/13 06:24:52;;;;;;;0.10;0.10;;;;;;;;;;4951900;29;20536;-75
2023/01/13 06:27:18;;;;;;;0.10;0.10;;;;;;;;;;4953246;28;20034;-78
2023/01/13 06:29:47;;;;;;;0.00;0.00;;;;;;;;;;4958315;29;20070;-77
2023/01/13 06:32:28;;;;;;;0.10;0.10;;;;;;;;;;4961876;29;20311;-76
2023/01/13 06:35:02;;;;;;;0.10;0.10;;;;;;;;;;4960101;29;20263;-76
2023/01/13 06:37:29;;;;;;;0.22;0.10;;;;;;;;;;4955723;29;20218;-76
2023/01/13 06:39:57;;;;;;;0.00;0.00;;;;;;;;;;4962730;29;20046;-76
2023/01/13 06:45:09;;;;;;;1.05;0.10;;;;;;;;;;4962391;29;20046;-75
2023/01/13 06:47:35;;;;;;;0.00;0.00;;;;;;;;;;4959310;29;20368;-76
2023/01/13 06:50:01;;;;;;;0.10;0.10;;;;;;;;;;4961667;29;20023;-76
2023/01/13 06:52:29;;;;;;;0.20;0.10;;;;;;;;;;4954739;29;20574;-76
2023/01/13 06:54:56;;;;;;;0.08;0.08;;;;;;;;;;4951533;29;20488;-76
2023/01/13 06:57:22;;;;;;;0.10;0.10;;;;;;;;;;4960141;29;20024;-76
2023/01/13 06:59:48;;;;;;;0.10;0.10;;;;;;;;;;4962536;29;20034;-75
2023/01/13 07:02:14;;;;;;;0.25;0.15;;;;;;;;;;4952199;29;20024;-77
2023/01/13 07:04:40;;;;;;;0.30;0.30;;;;;;;;;;4951505;29;20042;-77
2023/01/13 07:07:09;;;;;;;0.00;0.00;;;;;;;;;;4951622;28;20027;-77
2023/01/13 07:09:35;;;;;;;0.32;0.10;;;;;;;;;;4955024;29;20102;-77
2023/01/13 07:12:01;;;;;;;0.10;0.10;;;;;;;;;;4955028;29;20031;-77
2023/01/13 07:17:12;;;;;;;0.10;0.10;;;;;;;;;;4954932;29;20122;-77
2023/01/13 07:19:38;;;;;;;0.20;0.20;;;;;;;;;;4955168;29;20031;-77
2023/01/13 07:22:04;;;;;;;0.05;0.05;;;;;;;;;;4953914;28;20027;-76
2023/01/13 07:24:30;;;;;;;0.30;0.30;;;;;;;;;;4954557;29;20050;-77
2023/01/13 07:27:02;;;;;;;0.10;0.10;;;;;;;;;;4955056;29;20027;-76
2023/01/13 07:29:28;;;;;;;0.03;0.03;;;;;;;;;;4954766;29;20082;-77
2023/01/13 07:31:54;;;;;;;0.15;0.15;;;;;;;;;;4954809;29;20023;-77
2023/01/13 07:34:20;;;;;;;0.10;0.10;;;;;;;;;;4953961;29;20392;-76
2023/01/13 07:36:58;;;;;;;0.03;0.03;;;;;;;;;;4954991;29;20046;-76
2023/01/13 07:39:24;;;;;;;0.00;0.00;;;;;;;;;;4955264;29;20038;-77
2023/01/13 07:44:35;;;;;;;0.10;0.10;;;;;;;;;;4954828;29;20090;-77
2023/01/13 07:47:02;;;;;;;0.32;0.32;;;;;;;;;;4957951;29;20035;-76
2023/01/13 07:49:28;;;;;;;0.10;0.10;;;;;;;;;;4955491;28;20027;-76
2023/01/13 07:51:54;;;;;;;0.10;0.10;;;;;;;;;;4954242;29;20042;-77
2023/01/13 07:54:20;;;;;;;0.10;0.10;;;;;;;;;;4953315;29;20485;-77
2023/01/13 07:56:46;;;;;;;0.13;0.10;;;;;;;;;;4951688;29;20439;-77
2023/01/13 07:59:12;;;;;;;0.15;0.10;;;;;;;;;;4952966;29;20038;-77
2023/01/13 08:01:38;;;;;;;0.10;0.10;;;;;;;;;;4952626;29;20020;-77
2023/01/13 08:04:04;;;;;;;0.13;0.10;;;;;;;;;;4952675;29;20498;-76
2023/01/13 08:06:30;;;;;;;0.10;0.10;;;;;;;;;;4952112;29;20480;-76
2023/01/13 08:08:56;;;;;;;0.82;0.10;;;;;;;;;;4953264;29;20031;-77
2023/01/13 08:11:25;;;;;;;0.10;0.10;;;;;;;;;;4952119;29;20030;-77
2023/01/13 08:13:55;;;;;;;0.00;0.00;;;;;;;;;;4952955;28;20248;-76
2023/01/13 08:16:21;;;;;;;0.32;0.10;;;;;;;;;;4953047;28;20019;-76
2023/01/13 08:18:47;;;;;;;0.10;0.10;;;;;;;;;;4955332;28;20027;-77
2023/01/13 08:21:14;;;;;;;0.00;0.00;;;;;;;;;;4963191;29;20200;-77
2023/01/13 08:23:43;;;;;;;0.08;0.08;;;;;;;;;;4964812;29;20050;-77
2023/01/13 08:26:11;;;;;;;0.28;0.28;;;;;;;;;;4962314;29;20038;-76
2023/01/13 08:28:39;;;;;;;0.10;0.10;;;;;;;;;;4961732;29;20346;-76
2023/01/13 08:31:14;;;;;;;0.00;0.00;;;10.50;99.90;;;;;;4965422;28;20211;-76
2023/01/13 08:33:41;;;;;;;0.10;0.10;;;;;;;;;;4963981;28;20019;-77
2023/01/13 08:36:08;;;;;;;0.20;0.10;;;;;;;;;;4956348;28;20444;-78
2023/01/13 08:38:34;;;;;;;2.30;0.10;;;;;;;;;;4959022;29;20027;-78
2023/01/13 08:41:01;;;;;;;0.10;0.10;;;;;;;;;;4956419;29;20133;-77
2023/01/13 08:43:27;;;;;;;3.13;0.22;;;;;;;;;;4958784;29;20461;-76
2023/01/13 08:46:00;;;;;;;0.10;0.10;;;;;;;;;;4953211;29;20046;-78
2023/01/13 08:48:26;;;;;;;0.00;0.00;;;;;;;;;;4952826;29;20019;-76
2023/01/13 08:50:52;;;;;;;0.25;0.20;;;;;;;;;;4953050;29;20027;-77
2023/01/13 08:53:18;;;;;;;0.08;0.08;;;;;;;;;;4953750;29;20054;-76
2023/01/13 08:55:44;;;;;;;1.45;0.43;;;;;;;;;;4953607;29;20031;-76
2023/01/13 08:58:10;;;;;;;0.10;0.10;;;;;;;;;;4953470;29;20038;-76
2023/01/13 09:00:36;;;;;;;2.00;0.15;;;;;;;;;;4953280;29;20019;-75
2023/01/13 09:03:03;;;;;;;0.10;0.10;;;;;;;;;;4953090;29;20504;-76
2023/01/13 09:05:29;;;;;;;0.05;0.05;;;;;;;;;;4953720;28;20414;-76
2023/01/13 09:07:55;;;;;;;0.15;0.15;;;;;;;;;;4953622;29;20527;-75
2023/01/13 09:10:21;;;;;;;1.77;0.47;;;;;;;;;;4952975;29;20237;-75
2023/01/13 09:15:32;;;;;;;0.10;0.10;;;;;;;;;;4952717;29;20035;-75
2023/01/13 09:17:59;;;;;;;0.10;0.10;;;;;;;;;;4953053;29;20027;-75
2023/01/13 09:20:25;;;;;;;0.10;0.10;;;;;;;;;;4953658;28;20102;-75
2023/01/13 09:22:51;;;;;;;0.20;0.20;;;;;;;;;;4953347;29;20093;-77
2023/01/13 09:25:17;;;;;;;0.20;0.20;;;;;;;;;;4953229;29;20086;-76
2023/01/13 09:27:43;;;;;;;0.10;0.10;;;;;;;;;;4952914;29;20058;-75
2023/01/13 09:30:09;;;;;;;0.20;0.20;;;;;;;;;;4953367;28;20059;-75
2023/01/13 09:32:37;;;;;;;0.25;0.13;;;;;;;;;;4952295;29;20086;-75
2023/01/13 09:35:03;;;;;;;0.10;0.10;;;;;;;;;;4952527;28;20139;-75
2023/01/13 09:37:33;;;;;;;0.10;0.10;;;;;;;;;;4952808;29;20023;-74
2023/01/13 09:40:00;;;;;;;0.10;0.10;;;;;;;;;;4952889;29;20032;-75
2023/01/13 09:45:41;;;;;;;0.00;0.00;;;8.90;99.90;;;;;;4953484;29;20054;-75
2023/01/13 09:48:10;;;;;;;0.10;0.10;;;;;;;;;;4952823;29;20027;-75
2023/01/13 09:50:39;;;;;;;0.30;0.30;;;;;;;;;;4953832;29;20062;-75
2023/01/13 09:53:13;;;;;;;0.70;0.20;;;;;;;;;;4953880;29;20079;-75
2023/01/13 09:55:39;;;;;;;0.10;0.10;;;;;;;;;;4951890;29;20334;-75
2023/01/13 09:58:13;;;;;;;0.20;0.13;;;;;;;;;;4952126;29;20023;-75
2023/01/13 10:00:43;;;;;;;0.15;0.10;;;;;;;;;;4953700;29;20051;-76
2023/01/13 10:03:26;;;;;;;0.05;0.05;;;;;;;;;;4952078;29;20028;-75
2023/01/13 10:06:33;;;;;;;0.30;0.10;;;8.70;99.90;;;;;;4952987;29;20038;-75
2023/01/13 10:08:59;;;;;;;0.10;0.10;;;;;;;;;;4952292;29;20389;-76
2023/01/13 10:14:23;;;;;;;0.20;0.10;;;;;;;;;;4953604;29;20046;-77
2023/01/13 10:16:49;;;;;;;0.17;0.17;;;;;;;;;;4951480;29;20019;-76
2023/01/13 10:19:22;;;;;;;0.13;0.13;;;;;;;;;;4952889;29;20370;-76
2023/01/13 10:22:15;;;;;;;0.08;0.08;;;8.80;99.90;;;;;;4953177;29;20027;-75
2023/01/13 10:25:08;;;;;;;0.00;0.00;;;8.80;99.90;;;;;;4953456;29;20077;-75
2023/01/13 10:27:35;;;;;;;0.20;0.20;;;;;;;;;;4950337;29;20134;-76
2023/01/13 10:30:31;;;;;;;0.10;0.10;;;8.90;99.90;;;;;;4951077;29;20035;-76
2023/01/13 10:32:59;;;;;;;0.20;0.20;;;;;;;;;;4950969;28;20106;-76
2023/01/13 10:35:45;;;;;;;0.10;0.10;;;;;;;;;;4951902;29;20057;-76
2023/01/13 10:38:20;;;;;;;0.63;0.10;;;9.10;99.90;;;;;;4951460;29;20038;-76
2023/01/13 10:40:50;;;;;;;2.50;0.40;;;;;;;;;;4952422;28;20031;-76
2023/01/13 10:43:16;;;;;;;0.45;0.20;;;;;;;;;;4954448;28;20477;-76
2023/01/13 10:45:43;;;;;;;3.00;0.10;;;;;;;;;;4954246;29;20059;-76
2023/01/13 10:48:13;;;;;;;0.10;0.10;;;10.10;99.90;;;;;;4953867;29;20062;-76
2023/01/13 10:50:40;;;;;;;1.02;0.52;;;;;;;;;;4954384;28;20027;-76
2023/01/13 10:53:16;;;;;;;0.10;0.10;;;;;;;;;;4955545;29;20031;-77
2023/01/13 10:55:42;;;;;;;0.13;0.13;;;;;;;;;;4954277;29;20436;-77
2023/01/13 10:58:12;;;;;;;0.20;0.20;;;;;;;;;;4955337;28;20016;-76
2023/01/13 11:00:38;;;;;;;;;;;;;;;;;;4956050;28;20086;-77
2023/01/13 11:03:17;;;;;;;0.10;0.10;;;;;;;;;;4955006;29;19910;-77
2023/01/13 11:05:43;;;;;;;;;;;;;;;;;;4955333;29;20106;-77
2023/01/13 11:08:21;;;;;;;0.20;0.20;;;;;;;;;;4955441;29;19964;-76
2023/01/13 11:10:51;;;;;;;1.17;0.80;;;;;;;;;;4955047;29;20477;-76
2023/01/13 11:13:30;;;;;;;3.42;1.35;;;;;;;;;;4955325;29;20042;-76
2023/01/13 11:16:16;;;;;;;1.02;0.43;;;;;;;;;;4953873;29;20031;-76
2023/01/13 11:19:01;;;;;;;1.90;0.50;;;;;;;;;;4954964;29;20019;-76
2023/01/13 11:21:50;;;;;;;0.10;0.10;;;;;;;;;;4955189;29;20027;-76
2023/01/13 11:24:16;;;;;;;1.45;0.32;;;;;;;;;;4951550;29;20047;-76
2023/01/13 11:26:55;;;;;;;1.42;0.88;;;;;;;;;;4954860;29;20082;-76
2023/01/13 11:29:30;;;;;;;0.13;0.13;;;10.00;99.90;;;;;;4955125;29;20419;-77
2023/01/13 11:32:06;;;;;;;1.55;0.20;;;;;;;;;;4954990;28;20078;-76
2023/01/13 11:34:35;;;;;;;0.52;0.30;;;;;;;;;;4954903;28;20481;-76
2023/01/13 11:37:01;;;;;;;;;;;;;;;;;;4955178;29;20046;-76
2023/01/13 11:39:30;;;;;;;0.25;0.25;;;;;;;;;;4954851;29;19918;-77
2023/01/13 11:42:20;;;;;;;0.40;0.40;;;;;;;;;;4954551;29;20037;-76
2023/01/13 11:44:49;;;;;;;3.05;0.40;;;;;;;;;;4953552;29;20197;-76
2023/01/13 11:47:16;;;;;;;1.98;0.20;;;;;;;;;;4954511;29;20023;-76
2023/01/13 11:49:47;;;;;;;0.20;0.20;;;;;;;;;;4954537;29;20038;-77
2023/01/13 11:52:19;;;;;;;0.17;0.17;;;;;;;;;;4954797;28;20028;-76
2023/01/13 11:54:45;;;;;;;2.78;0.57;;;;;;;;;;4954134;28;20050;-76
2023/01/13 11:57:11;;;;;;;0.65;0.30;;;;;;;;;;4954435;29;20082;-76
2023/01/13 11:59:55;;;;;;;0.93;0.60;;;;;;;;;;4954257;29;20106;-76
2023/01/13 12:02:44;;;;;;;0.10;0.10;;;;;;;;;;4948485;28;20046;-78
2023/01/13 12:05:30;;;;;;;0.88;0.30;;;;;;;;;;4953314;29;20184;-79
2023/01/13 12:08:08;;;;;;;1.85;0.65;;;;;;;;;;4945907;29;20038;-74
2023/01/13 12:10:53;;;;;;;0.20;0.20;;;;;;;;;;4952702;29;20031;-75
2023/01/13 12:13:23;;;;;;;0.43;0.15;;;;;;;;;;4954176;29;20034;-76
2023/01/13 12:15:49;;;;;;;0.10;0.10;;;;;;;;;;4954323;29;20027;-79
2023/01/13 12:18:18;;;;;;;0.63;0.13;;;;;;;;;;4953811;29;20023;-74
2023/01/13 12:20:53;;;;;;;0.10;0.10;;;;;;;;;;4954849;29;20035;-75
2023/01/13 12:23:39;;;;;;;0.28;0.28;;;10.60;99.90;;;;;;4954309;28;20028;-76
2023/01/13 12:26:15;;;;;;;0.40;0.38;;;;;;;;;;4953811;28;20035;-75
2023/01/13 12:28:48;;;;;;;1.85;0.20;;;;;;;;;;4953903;29;20050;-74
2023/01/13 12:31:17;;;;;;;0.82;0.22;;;;;;;;;;4952798;29;20035;-78
2023/01/13 12:34:11;;;;;;;0.45;0.45;;;10.40;99.90;;;;;;4954065;28;20020;-75
2023/01/13 12:36:46;;;;;;;0.40;0.40;;;;;;;;;;4952931;29;20047;-75
2023/01/13 12:39:15;;;;;;;0.10;0.10;;;;;;;;;;4953722;29;20024;-76
2023/01/13 12:44:36;;;;;;;0.28;0.28;;;;;;;;;;4937975;29;20039;-75
2023/01/13 12:47:02;;;;;;;0.30;0.30;;;;;;;;;;4955789;29;20031;-78
2023/01/13 12:49:32;;;;;;;0.40;0.25;;;;;;;;;;4959956;29;20027;-77
2023/01/13 12:52:02;;;;;;;2.63;0.28;;;;;;;;;;4964456;29;20319;-77
2023/01/13 12:54:28;;;;;;;0.17;0.17;;;;;;;;;;4958555;28;20034;-77
2023/01/13 12:56:54;;;;;;;0.30;0.25;;;;;;;;;;4957567;28;20323;-77
2023/01/13 12:59:20;;;;;;;1.17;0.30;;;;;;;;;;4943332;29;20031;-77
2023/01/13 13:02:05;;;;;;;1.48;0.30;;;;;;;;;;4954319;29;20030;-77
2023/01/13 13:04:50;;;;;;;0.40;0.40;;;;;;;;;;4953145;28;20094;-78
2023/01/13 13:07:22;;;;;;;1.25;0.40;;;;;;;;;;4959655;29;20115;-78
2023/01/13 13:09:55;;;;;;;0.63;0.63;;;;;;;;;;4960388;29;20024;-80
2023/01/13 13:15:22;;;;;;;0.30;0.20;;;;;;;;;;4961795;29;20062;-81
2023/01/13 13:17:57;;;;;;;1.65;0.20;;;;;;;;;;4981318;28;20223;-82
2023/01/13 13:20:58;;;;;;;0.10;0.10;;;10.50;99.90;;;;;;4977120;28;20038;-79
2023/01/13 13:23:38;;;;;;;0.10;0.10;;;;;;;;;;4959997;29;20034;-79
2023/01/13 13:26:23;;;;;;;0.15;0.15;;;;;;;;;;4960923;28;20530;-80
2023/01/13 13:29:08;;;;;;;0.80;0.10;;;;;;;;;;4976111;28;20042;-80
2023/01/13 13:31:46;;;;;;;0.75;0.20;;;;;;;;;;4960211;29;20043;-80
2023/01/13 13:34:15;;;;;;;0.52;0.52;;;;;;;;;;4960807;29;20504;-80
2023/01/13 13:37:02;;;;;;;0.90;0.17;;;12.30;99.90;;;;;;4961169;29;20038;-80
2023/01/13 13:48:23;;;;;;;1.45;0.20;;;;;;;;;;4938868;29;20052;-81
2023/01/13 13:51:01;;;;;;;2.13;0.77;;;;;;;;;;4930226;29;20029;-81
2023/01/13 13:53:33;;;;;;;0.40;0.40;;;;;;;;;;4930499;29;20354;-81
2023/01/13 13:56:00;;;;;;;0.08;0.08;;;;;;;;;;4929559;29;20032;-76
2023/01/13 13:58:27;;;;;;;1.15;0.20;;;;;;;;;;4928530;29;20053;-79
2023/01/13 14:00:55;;;;;;;0.43;0.30;;;;;;;;;;4928484;29;20020;-75
2023/01/13 14:03:39;;;;;;;0.10;0.10;;;;;;;;;;4929699;29;20469;-75
2023/01/13 14:06:06;;;;;;;0.75;0.35;;;;;;;;;;4930250;29;20031;-78
2023/01/13 14:08:34;;;;;;;0.20;0.20;;;;;;;;;;4932377;29;20480;-76
2023/01/13 14:11:00;;;;;;;1.52;0.20;;;;;;;;;;4932603;29;20035;-74
2023/01/13 14:13:27;;;;;;;0.10;0.10;;;;;;;;;;4933855;29;20071;-76
2023/01/13 14:16:03;;;;;;;0.47;0.40;;;9.10;99.90;;;;;;4932318;29;20111;-74
2023/01/13 14:18:31;;;;;;;0.15;0.15;;;;;;;;;;4933423;29;20508;-75
2023/01/13 14:21:24;;;;;;;2.92;0.15;;;;;;;;;;4930906;29;20119;-78
2023/01/13 14:23:51;;;;;;;2.70;0.52;;;;;;;;;;4927411;29;20695;-75
2023/01/13 14:26:17;;;;;;;1.23;0.20;;;;;;;;;;4929259;29;20039;-74
2023/01/13 14:28:43;;;;;;;0.10;0.10;;;;;;;;;;4930042;29;20031;-73
2023/01/13 14:31:10;;;;;;;0.40;0.40;;;;;;;;;;4929492;29;20119;-74
2023/01/13 14:33:37;;;;;;;0.22;0.20;;;;;;;;;;4929754;29;20027;-73
2023/01/13 14:36:04;;;;;;;0.30;0.30;;;;;;;;;;4929500;29;20048;-74
2023/01/13 14:38:30;;;;;;;0.30;0.30;;;;;;;;;;4929672;29;20516;-74
2023/01/13 14:40:56;;;;;;;1.17;0.20;;;;;;;;;;4929556;29;20055;-74
2023/01/13 14:43:24;;;;;;;0.73;0.60;;;;;;;;;;4929738;29;20090;-73
2023/01/13 14:45:57;;;;;;;0.20;0.20;;;;;;;;;;4929428;29;20047;-74
2023/01/13 14:48:29;;;;;;;0.20;0.20;;;;;;;;;;4934156;29;20019;-74
2023/01/13 14:50:56;;;;;;;0.73;0.10;;;;;;;;;;4949540;28;20063;-74
2023/01/13 14:53:30;;;;;;;1.50;0.63;;;;;;;;;;4948400;29;20608;-74
2023/01/13 14:55:57;;;;;;;0.25;0.25;;;;;;;;;;4948647;29;20027;-74
2023/01/13 14:58:27;;;;;;;0.50;0.50;;;;;;;;;;4949220;28;20078;-75
2023/01/13 15:01:13;;;;;;;2.38;0.13;;;;;;;;;;4948841;29;20027;-73
2023/01/13 15:03:40;;;;;;;2.65;0.40;;;;;;;;;;4937435;29;20067;-74
2023/01/13 15:06:20;;;;;;;0.40;0.40;;;;;;;;;;4963735;28;20520;-75
2023/01/13 15:08:46;;;;;;;0.17;0.17;;;;;;;;;;4965497;28;20074;-75
2023/01/13 15:11:27;;;;;;;0.73;0.32;;;6.30;99.90;;;;;;4965277;28;20039;-75
2023/01/13 15:14:00;;;;;;;0.13;0.13;;;;;;;;;;4947600;29;20034;-74
2023/01/13 15:16:26;;;;;;;0.30;0.22;;;;;;;;;;4948779;28;20031;-74
2023/01/13 15:18:53;;;;;;;4.70;1.17;;;;;;;;;;4963817;28;20523;-75
2023/01/13 15:21:19;;;;;;;0.52;0.38;;;;;;;;;;4963268;28;20020;-75
2023/01/13 15:23:46;;;;;;;1.00;0.35;;;;;;;;;;4948687;29;20042;-74
2023/01/13 15:26:32;;;;;;;1.75;0.40;;;6.30;99.90;;;;;;4949044;28;20416;-75
2023/01/13 15:28:59;;;;;;;1.55;0.20;;;;;;;;;;4949708;28;20019;-74
2023/01/13 15:31:26;;;;;;;0.80;0.80;;;;;;;;;;4952118;29;20035;-75
2023/01/13 15:33:52;;;;;;;1.15;0.47;;;;;;;;;;4954262;29;20485;-75
2023/01/13 15:36:20;;;;;;;0.32;0.32;;;;;;;;;;4950509;29;20067;-76
2023/01/13 15:38:46;;;;;;;0.60;0.43;;;;;;;;;;4952695;29;20425;-75
2023/01/13 15:41:12;;;;;;;1.50;0.68;;;;;;;;;;4956340;29;20035;-75
2023/01/13 15:46:38;;;;;;;1.38;0.40;;;;;;;;;;4949334;28;20133;-76
2023/01/13 15:49:08;;;;;;;2.92;0.98;;;;;;;;;;4962845;28;20251;-76
2023/01/13 15:51:35;;;;;;;0.20;0.20;;;;;;;;;;4949928;28;20110;-76
2023/01/13 15:54:01;;;;;;;2.78;0.20;;;;;;;;;;4966158;28;20090;-77